Latest Weather Observations for Eildon Fire Tower

IDV60801

Issued at 10:02 pm EDT Saturday 25 February 2017 (issued every 30 minutes, with the page automatically refreshed every 10 minutes)

About weather observations | Map of weather stations | Latest weather observations for VIC | Other Formats
Station Details ID: 088164 Name: EILDON FIRE TOWER Lat: -37.21 Lon: 145.84 Height: 637.0 m
Data from the previous 72 hours. | See also: Recent months at Eildon Fire Tower
Date/Time
EDT
Temp
°C
App
Temp
°C
Dew
Point
°C
Rel
Hum
%
Delta-T
°C
Wind Press
QNH
hPa
Press
MSL
hPa
Rain since
9am
mm
Dir  Spd
km/h
Gust
km/h
Spd
kts
Gust
kts
25/10:00pm 15.4 9.0 9.3 67 3.2 SE 33 46 18 25 - - 0.0
25/09:30pm 15.7 10.2 9.1 65 3.5 SE 28 43 15 23 - - 0.0
25/09:00pm 16.4 12.4 9.1 62 3.9 SE 20 37 11 20 - - 0.0
25/08:30pm 16.5 16.0 9.4 63 3.8 WNW 2 6 1 3 - - 0.0
25/08:00pm 17.4 15.3 9.6 60 4.2 WSW 11 13 6 7 - - 0.0
25/07:30pm 19.1 15.9 9.9 55 5.1 WSW 17 22 9 12 - - 0.0
25/07:00pm 20.0 15.9 10.1 53 5.5 WSW 22 30 12 16 - - 0.0
25/06:30pm 21.2 17.6 10.4 50 6.1 WSW 20 32 11 17 - - 0.0
25/06:00pm 21.4 16.4 9.6 47 6.5 WSW 26 35 14 19 - - 0.0
25/05:30pm 21.9 17.6 9.4 45 6.9 WSW 22 32 12 17 - - 0.0
25/05:00pm 22.2 18.3 9.4 44 7.1 SW 20 28 11 15 - - 0.0
25/04:30pm 23.1 20.0 8.8 40 7.9 WSW 15 24 8 13 - - 0.0
25/04:00pm 22.6 20.2 8.7 41 7.6 W 11 17 6 9 - - 0.0
25/03:30pm 22.2 18.7 8.7 42 7.4 WSW 17 22 9 12 - - 0.0
25/03:00pm 22.0 18.0 8.2 41 7.5 WSW 19 26 10 14 - - 0.0
25/02:30pm 21.4 18.2 8.3 43 7.1 WSW 15 20 8 11 - - 0.0
25/02:00pm 20.8 18.3 8.1 44 6.8 SW 11 22 6 12 - - 0.0
25/01:30pm 20.3 18.0 7.3 43 6.9 SW 9 19 5 10 - - 0.0
25/01:00pm 20.0 18.2 7.1 43 6.8 SSE 6 17 3 9 - - 0.0
25/12:30pm 21.0 19.1 7.6 42 7.1 S 7 11 4 6 - - 0.0
25/12:00pm 19.3 17.3 6.4 43 6.7 SE 6 11 3 6 - - 0.0
25/11:30am 17.7 15.4 5.6 45 6.1 SSE 7 15 4 8 - - 0.0
25/11:00am 16.9 14.6 7.3 53 5.0 SSE 9 17 5 9 - - 0.0
25/10:30am 16.3 14.3 7.0 54 4.8 ESE 7 20 4 11 - - 0.0
25/10:00am 14.5 12.0 6.6 59 4.0 S 9 15 5 8 - - 0.0
25/09:30am 13.6 10.4 5.3 57 4.0 SSE 11 17 6 9 - - 0.0
25/09:00am 11.4 9.3 5.7 68 2.7 SSW 6 7 3 4 - - 0.0
25/08:30am 12.4 10.5 5.1 61 3.5 SE 4 6 2 3 - - 0.0
25/08:00am 11.3 9.2 5.6 68 2.7 SSE 6 9 3 5 - - 0.0
25/07:30am 10.1 7.0 5.7 74 2.1 SE 11 19 6 10 - - 0.0
25/07:00am 9.2 5.4 5.6 78 1.7 ESE 15 28 8 15 - - 0.0
25/06:30am 9.3 6.6 5.5 77 1.8 SE 9 13 5 7 - - 0.0
25/06:00am 9.3 5.8 5.5 77 1.8 SE 13 22 7 12 - - 0.0
25/05:30am 9.5 6.8 5.5 76 1.9 ESE 9 13 5 7 - - 0.0
25/05:00am 9.5 7.7 5.3 75 2.0 SE 4 7 2 4 - - 0.0
25/04:30am 9.6 7.2 5.2 74 2.1 E 7 13 4 7 - - 0.0
25/04:00am 9.6 8.1 5.2 74 2.1 W 2 4 1 2 - - 0.0
25/03:30am 9.7 8.0 5.7 76 1.9 WSW 4 6 2 3 - - 0.0
25/03:00am 9.3 6.6 5.7 78 1.7 SW 9 13 5 7 - - 0.0
25/02:30am 9.6 6.6 5.8 77 1.8 SW 11 13 6 7 - - 0.0
25/02:00am 10.2 7.9 5.8 74 2.1 SW 7 11 4 6 - - 0.0
25/01:30am 9.8 7.2 6.0 77 1.8 W 9 11 5 6 - - 0.0
25/01:00am 9.9 7.6 5.9 76 1.9 WSW 7 9 4 5 - - 0.0
25/12:30am 10.2 7.6 6.0 75 2.0 SW 9 11 5 6 - - 0.0
25/12:00am 10.4 8.2 6.2 75 2.0 WSW 7 11 4 6 - - 0.0
 
Date/Time
EDT
Temp
°C
App
Temp
°C
Dew
Point
°C
Rel
Hum
%
Delta-T
°C
Wind Press
QNH
hPa
Press
MSL
hPa
Rain since
9am
mm
Dir  Spd
km/h
Gust
km/h
Spd
kts
Gust
kts
24/11:30pm 10.6 8.6 6.4 75 2.0 WSW 6 9 3 5 - - 0.0
24/11:00pm 10.9 8.0 6.6 75 2.1 SW 11 15 6 8 - - 0.0
24/10:30pm 11.1 7.9 6.8 75 2.1 WSW 13 17 7 9 - - 0.0
24/10:00pm 11.4 6.8 6.7 73 2.3 SW 20 24 11 13 - - 0.0
24/09:30pm 11.7 7.2 7.0 73 2.3 SW 20 22 11 12 - - 0.0
24/09:00pm 11.6 7.1 7.1 74 2.2 WSW 20 24 11 13 - - 0.0
24/08:30pm 12.3 7.8 7.0 70 2.6 WSW 20 26 11 14 - - 0.0
24/08:00pm 13.6 9.0 6.7 63 3.4 WSW 20 24 11 13 - - 0.0
24/07:30pm 15.4 10.5 6.9 57 4.3 WSW 22 32 12 17 - - 0.0
24/07:00pm 17.0 11.8 7.1 52 5.1 SW 24 30 13 16 - - 0.0
24/06:30pm 17.7 11.7 7.2 50 5.4 SW 28 39 15 21 - - 0.0
24/06:00pm 18.8 13.5 6.9 46 6.2 WSW 24 39 13 21 - - 0.0
24/05:30pm 19.6 14.1 7.4 45 6.4 WSW 26 35 14 19 - - 0.0
24/05:00pm 19.8 13.5 7.5 45 6.5 WSW 30 39 16 21 - - 0.0
24/04:30pm 20.3 14.9 8.0 45 6.6 WSW 26 41 14 22 - - 0.0
24/04:00pm 20.7 15.3 8.0 44 6.8 WSW 26 37 14 20 - - 0.0
24/03:30pm 19.6 13.0 7.7 46 6.3 WSW 32 46 17 25 - - 0.0
24/03:00pm 19.6 12.9 8.0 47 6.2 W 33 41 18 22 - - 0.0
24/02:30pm 19.8 13.8 8.8 49 6.0 W 30 43 16 23 - - 0.0
24/02:00pm 21.2 17.4 9.8 48 6.3 WSW 20 30 11 16 - - 0.0
24/01:30pm 19.9 15.3 9.8 52 5.6 WSW 24 35 13 19 - - 0.0
24/01:00pm 19.6 15.9 9.5 52 5.5 WSW 19 33 10 18 - - 0.0
24/12:30pm 19.6 15.7 9.5 52 5.5 WSW 20 32 11 17 - - 0.0
24/12:00pm 19.2 16.8 9.9 55 5.1 WSW 13 22 7 12 - - 0.0
24/11:30am 19.7 17.8 10.4 55 5.2 SW 11 17 6 9 - - 0.0
24/11:00am 18.1 17.0 10.5 61 4.2 W 7 13 4 7 - - 0.0
24/10:30am 16.9 15.9 11.0 68 3.3 SW 7 13 4 7 - - 0.0
24/10:00am 15.6 14.1 10.6 72 2.7 W 9 11 5 6 - - 0.0
24/09:30am 14.1 12.1 11.6 85 1.4 W 13 17 7 9 - - 0.0
24/09:00am 13.1 12.6 12.0 93 0.6 WSW 6 7 3 4 - - 0.0
24/08:30am 11.9 9.5 11.4 97 0.3 WSW 15 17 8 9 - - 0.0
24/08:00am 11.4 8.1 10.9 97 0.3 WSW 19 20 10 11 - - 0.0
24/07:30am 11.3 7.8 10.8 97 0.3 WSW 20 22 11 12 - - 0.0
24/07:00am 11.4 9.6 10.9 97 0.3 WSW 11 15 6 8 - - 0.0
24/06:30am 11.5 10.7 11.0 97 0.3 WSW 6 9 3 5 - - 0.0
24/06:00am 11.6 10.6 11.1 97 0.3 WSW 7 11 4 6 - - 0.0
24/05:30am 11.5 9.4 11.0 97 0.3 WSW 13 15 7 8 - - 0.0
24/05:00am 11.7 8.5 11.1 96 0.3 WSW 19 20 10 11 - - 0.0
24/04:30am 12.0 10.3 11.2 95 0.4 W 11 15 6 8 - - 0.0
24/04:00am 12.2 10.5 11.3 94 0.5 W 11 17 6 9 - - 0.0
24/03:30am 13.1 12.2 11.2 88 1.0 SSE 7 9 4 5 - - 0.0
24/03:00am 12.5 11.9 11.6 94 0.5 WSW 6 9 3 5 - - 0.0
24/02:30am 12.6 9.8 11.5 93 0.6 WSW 17 19 9 10 - - 0.0
24/02:00am 12.8 9.4 11.4 91 0.8 WSW 20 24 11 13 - - 0.0
24/01:30am 13.4 10.6 11.5 88 1.0 W 17 20 9 11 - - 0.0
24/01:00am 14.5 12.5 11.5 82 1.7 W 13 17 7 9 - - 0.0
24/12:30am 16.0 15.7 11.4 74 2.6 SSW 4 7 2 4 - - 0.0
24/12:00am 15.5 13.8 11.3 76 2.3 WSW 11 13 6 7 - - 0.0
 
Date/Time
EDT
Temp
°C
App
Temp
°C
Dew
Point
°C
Rel
Hum
%
Delta-T
°C
Wind Press
QNH
hPa
Press
MSL
hPa
Rain since
9am
mm
Dir  Spd
km/h
Gust
km/h
Spd
kts
Gust
kts
23/11:30pm 15.6 12.3 11.0 74 2.5 WSW 19 20 10 11 - - 0.0
23/11:00pm 16.1 12.8 10.8 71 2.9 W 19 22 10 12 - - 0.0
23/10:30pm 16.8 14.3 10.9 68 3.3 W 15 19 8 10 - - 0.0
23/10:00pm 17.5 14.2 11.5 68 3.4 WSW 20 24 11 13 - - 0.0
23/09:30pm 18.3 13.9 11.6 65 3.8 WSW 26 32 14 17 - - 0.0
23/09:00pm 18.9 13.6 11.2 61 4.3 WSW 30 37 16 20 - - 0.0
23/08:30pm 20.0 15.5 11.5 58 4.8 WSW 26 33 14 18 - - 0.0
23/08:00pm 22.1 18.2 10.9 49 6.4 SW 22 33 12 18 - - 0.0
23/07:30pm 24.4 21.2 9.9 40 8.2 SW 17 22 9 12 - - 0.0
23/07:00pm 25.9 22.1 7.5 31 10.1 WSW 17 24 9 13 - - 0.0
23/06:30pm 26.8 23.1 7.8 30 10.5 W 17 28 9 15 - - 0.0
23/06:00pm 27.1 22.7 7.5 29 10.8 WSW 20 28 11 15 - - 0.0
23/05:30pm 27.5 23.3 7.4 28 11.1 W 19 33 10 18 - - 0.0
23/05:00pm 27.1 22.0 6.0 26 11.3 W 22 32 12 17 - - 0.0
23/04:30pm 27.9 24.8 7.2 27 11.4 W 13 20 7 11 - - 0.0
23/04:00pm 27.4 23.0 7.3 28 11.0 WSW 20 28 11 15 - - 0.0
23/03:30pm 26.7 22.4 7.2 29 10.6 W 19 32 10 17 - - 0.0
23/03:00pm 26.9 22.9 8.4 31 10.3 W 19 33 10 18 - - 0.0
23/02:30pm 26.1 21.5 8.1 32 9.9 W 22 30 12 16 - - 0.0
23/02:00pm 25.7 21.7 8.2 33 9.7 W 19 28 10 15 - - 0.0
23/01:30pm 25.3 20.5 7.4 32 9.7 WSW 22 33 12 18 - - 0.0
23/01:00pm 24.4 20.2 7.5 34 9.2 W 19 30 10 16 - - 0.0
23/12:30pm 23.9 19.6 7.1 34 9.0 WSW 19 28 10 15 - - 0.0
23/12:00pm 23.3 20.5 8.6 39 8.1 WSW 13 19 7 10 - - 0.0
23/11:30am 21.8 18.7 8.7 43 7.2 WSW 15 20 8 11 - - 0.0
23/11:00am 21.8 18.8 7.6 40 7.6 WSW 13 17 7 9 - - 0.0
23/10:30am 20.1 17.1 7.8 45 6.5 WSW 13 20 7 11 - - 0.0
23/10:00am 19.0 15.8 8.4 50 5.7 WSW 15 17 8 9 - - 0.0
23/09:30am 18.5 16.9 8.2 51 5.5 WSW 6 9 3 5 - - 0.0
23/09:00am 17.2 14.7 8.1 55 4.8 WNW 11 13 6 7 - - 0.0
23/08:30am 16.0 12.6 7.7 58 4.3 W 15 17 8 9 - - 0.0
23/08:00am 16.9 14.7 7.8 55 4.7 WNW 9 13 5 7 - - 0.0
23/07:30am 17.1 15.2 7.5 53 5.0 WNW 7 9 4 5 - - 0.0
23/07:00am 17.4 15.7 7.5 52 5.2 NW 6 7 3 4 - - 0.0
23/06:30am 19.1 16.7 4.1 37 7.4 NNE 6 7 3 4 - - 0.0
23/06:00am 19.0 17.3 5.8 42 6.7 WNW 4 6 2 3 - - 0.0
23/05:30am 18.4 16.5 4.9 41 6.7 W 4 9 2 5 - - 0.0
23/05:00am 21.1 18.8 2.9 30 8.9 SW 4 6 2 3 - - 0.0
23/04:30am 20.6 18.4 3.3 32 8.5 WNW 4 6 2 3 - - 0.0
23/04:00am 20.5 17.3 2.8 31 8.6 WSW 9 15 5 8 - - 0.0
23/03:30am 20.2 16.5 2.1 30 8.6 WSW 11 13 6 7 - - 0.0
23/03:00am 22.5 18.9 0.9 24 10.2 WNW 9 13 5 7 - - 0.0
23/02:30am 23.8 18.0 0.2 21 11.2 NNW 20 32 11 17 - - 0.0
23/02:00am 21.8 13.8 1.5 26 9.7 W 33 59 18 32 - - 0.0
23/01:55am 22.6 15.1 1.0 24 10.3 WNW 30 59 16 32 - - 0.0
23/01:53am 23.0 15.8 0.8 23 10.6 NW 28 59 15 32 - - 0.0
23/01:51am 24.5 18.0 0.1 20 11.6 NNW 24 54 13 29 - - 0.0
23/01:30am 25.2 18.3 0.0 19 12.0 N 26 39 14 21 - - 0.0
23/01:00am 25.2 18.4 0.7 20 11.8 N 26 33 14 18 - - 0.0
23/12:30am 25.0 18.5 0.5 20 11.8 N 24 37 13 20 - - 0.0
23/12:00am 25.1 17.9 0.6 20 11.8 N 28 37 15 20 - - 0.0
 
Date/Time
EDT
Temp
°C
App
Temp
°C
Dew
Point
°C
Rel
Hum
%
Delta-T
°C
Wind Press
QNH
hPa
Press
MSL
hPa
Rain since
9am
mm
Dir  Spd
km/h
Gust
km/h
Spd
kts
Gust
kts
22/11:30pm 25.2 18.0 0.7 20 11.8 N 28 35 15 19 - - 0.0
22/11:00pm 25.4 18.6 0.8 20 11.9 N 26 33 14 18 - - 0.0
22/10:30pm 25.0 19.4 1.2 21 11.6 N 20 26 11 14 - - 0.0

Other Formats:

Comma delimited format used in spreadsheet applications
http://www.bom.gov.au/fwo/IDV60801/IDV60801.94881.axf

JavaScript Object Notation format (JSON) in row-major order
http://www.bom.gov.au/fwo/IDV60801/IDV60801.94881.json